sensor_id;sensor_type;location;lat;lon;timestamp;P1;durP1;ratioP1;P2;durP2;ratioP2
23123;SDS011;11731;48.592;8.858;2023-08-12T00:01:16;6.33;;;4.10;;
23123;SDS011;11731;48.592;8.858;2023-08-12T00:03:46;4.47;;;4.07;;
23123;SDS011;11731;48.592;8.858;2023-08-12T00:06:13;5.27;;;4.53;;
23123;SDS011;11731;48.592;8.858;2023-08-12T00:08:39;5.07;;;4.47;;
23123;SDS011;11731;48.592;8.858;2023-08-12T00:11:06;8.13;;;4.57;;
23123;SDS011;11731;48.592;8.858;2023-08-12T00:13:34;8.07;;;4.50;;
23123;SDS011;11731;48.592;8.858;2023-08-12T00:16:01;5.60;;;4.00;;
23123;SDS011;11731;48.592;8.858;2023-08-12T00:18:28;5.93;;;4.87;;
23123;SDS011;11731;48.592;8.858;2023-08-12T00:20:55;5.67;;;4.53;;
23123;SDS011;11731;48.592;8.858;2023-08-12T00:23:22;5.43;;;4.50;;
23123;SDS011;11731;48.592;8.858;2023-08-12T00:25:49;5.10;;;4.27;;
23123;SDS011;11731;48.592;8.858;2023-08-12T00:28:16;4.40;;;4.00;;
23123;SDS011;11731;48.592;8.858;2023-08-12T00:30:47;6.93;;;4.27;;
23123;SDS011;11731;48.592;8.858;2023-08-12T00:33:14;4.37;;;3.97;;
23123;SDS011;11731;48.592;8.858;2023-08-12T00:35:41;4.63;;;4.07;;
23123;SDS011;11731;48.592;8.858;2023-08-12T00:38:08;6.30;;;4.70;;
23123;SDS011;11731;48.592;8.858;2023-08-12T00:40:35;7.43;;;4.53;;
23123;SDS011;11731;48.592;8.858;2023-08-12T00:43:01;5.83;;;4.23;;
23123;SDS011;11731;48.592;8.858;2023-08-12T00:45:28;6.30;;;4.27;;
23123;SDS011;11731;48.592;8.858;2023-08-12T00:47:57;6.53;;;4.33;;
23123;SDS011;11731;48.592;8.858;2023-08-12T00:50:24;5.10;;;4.30;;
23123;SDS011;11731;48.592;8.858;2023-08-12T00:52:52;5.10;;;4.60;;
23123;SDS011;11731;48.592;8.858;2023-08-12T00:55:18;4.90;;;4.50;;
23123;SDS011;11731;48.592;8.858;2023-08-12T00:57:46;5.07;;;4.40;;
23123;SDS011;11731;48.592;8.858;2023-08-12T01:00:14;5.60;;;4.70;;
23123;SDS011;11731;48.592;8.858;2023-08-12T01:02:41;4.80;;;4.37;;
23123;SDS011;11731;48.592;8.858;2023-08-12T01:05:14;4.63;;;4.23;;
23123;SDS011;11731;48.592;8.858;2023-08-12T01:07:41;4.87;;;4.37;;
23123;SDS011;11731;48.592;8.858;2023-08-12T01:10:10;9.37;;;4.40;;
23123;SDS011;11731;48.592;8.858;2023-08-12T01:12:41;5.20;;;4.00;;
23123;SDS011;11731;48.592;8.858;2023-08-12T01:15:16;5.00;;;4.50;;
23123;SDS011;11731;48.592;8.858;2023-08-12T01:17:47;9.90;;;3.83;;
23123;SDS011;11731;48.592;8.858;2023-08-12T01:20:18;6.33;;;4.77;;
23123;SDS011;11731;48.592;8.858;2023-08-12T01:22:49;7.10;;;4.27;;
23123;SDS011;11731;48.592;8.858;2023-08-12T01:25:23;10.37;;;4.60;;
23123;SDS011;11731;48.592;8.858;2023-08-12T01:27:50;5.83;;;4.70;;
23123;SDS011;11731;48.592;8.858;2023-08-12T01:30:17;8.03;;;5.33;;
23123;SDS011;11731;48.592;8.858;2023-08-12T01:32:49;5.10;;;4.47;;
23123;SDS011;11731;48.592;8.858;2023-08-12T01:35:20;7.83;;;4.73;;
23123;SDS011;11731;48.592;8.858;2023-08-12T01:37:51;4.87;;;4.40;;
23123;SDS011;11731;48.592;8.858;2023-08-12T01:40:19;4.77;;;4.30;;
23123;SDS011;11731;48.592;8.858;2023-08-12T01:42:48;7.00;;;4.60;;
23123;SDS011;11731;48.592;8.858;2023-08-12T01:45:17;4.70;;;4.20;;
23123;SDS011;11731;48.592;8.858;2023-08-12T01:47:44;5.47;;;4.50;;
23123;SDS011;11731;48.592;8.858;2023-08-12T01:50:11;4.90;;;4.40;;
23123;SDS011;11731;48.592;8.858;2023-08-12T01:52:38;4.43;;;4.03;;
23123;SDS011;11731;48.592;8.858;2023-08-12T01:55:05;6.10;;;4.67;;
23123;SDS011;11731;48.592;8.858;2023-08-12T01:57:32;5.97;;;4.80;;
23123;SDS011;11731;48.592;8.858;2023-08-12T02:00:01;8.23;;;5.57;;
23123;SDS011;11731;48.592;8.858;2023-08-12T02:02:28;5.37;;;4.87;;
23123;SDS011;11731;48.592;8.858;2023-08-12T02:04:55;8.37;;;5.73;;
23123;SDS011;11731;48.592;8.858;2023-08-12T02:07:22;8.23;;;6.40;;
23123;SDS011;11731;48.592;8.858;2023-08-12T02:09:49;6.30;;;5.50;;
23123;SDS011;11731;48.592;8.858;2023-08-12T02:12:15;6.70;;;5.53;;
23123;SDS011;11731;48.592;8.858;2023-08-12T02:14:42;7.30;;;5.13;;
23123;SDS011;11731;48.592;8.858;2023-08-12T02:17:10;12.80;;;6.70;;
23123;SDS011;11731;48.592;8.858;2023-08-12T02:19:37;8.67;;;5.27;;
23123;SDS011;11731;48.592;8.858;2023-08-12T02:22:04;6.00;;;5.37;;
23123;SDS011;11731;48.592;8.858;2023-08-12T02:24:31;5.93;;;5.33;;
23123;SDS011;11731;48.592;8.858;2023-08-12T02:26:58;7.10;;;5.33;;
23123;SDS011;11731;48.592;8.858;2023-08-12T02:29:24;9.33;;;5.60;;
23123;SDS011;11731;48.592;8.858;2023-08-12T02:31:51;11.37;;;5.50;;
23123;SDS011;11731;48.592;8.858;2023-08-12T02:34:19;6.90;;;5.23;;
23123;SDS011;11731;48.592;8.858;2023-08-12T02:36:46;6.20;;;4.67;;
23123;SDS011;11731;48.592;8.858;2023-08-12T02:39:13;6.33;;;5.17;;
23123;SDS011;11731;48.592;8.858;2023-08-12T02:41:39;5.83;;;5.03;;
23123;SDS011;11731;48.592;8.858;2023-08-12T02:44:06;7.50;;;5.93;;
23123;SDS011;11731;48.592;8.858;2023-08-12T02:46:33;7.50;;;5.90;;
23123;SDS011;11731;48.592;8.858;2023-08-12T02:49:00;5.60;;;5.10;;
23123;SDS011;11731;48.592;8.858;2023-08-12T02:51:28;6.20;;;4.40;;
23123;SDS011;11731;48.592;8.858;2023-08-12T02:53:54;6.17;;;5.50;;
23123;SDS011;11731;48.592;8.858;2023-08-12T02:56:21;12.23;;;5.80;;
23123;SDS011;11731;48.592;8.858;2023-08-12T02:58:48;5.20;;;4.70;;
23123;SDS011;11731;48.592;8.858;2023-08-12T03:01:15;4.90;;;4.43;;
23123;SDS011;11731;48.592;8.858;2023-08-12T03:03:42;5.97;;;5.00;;
23123;SDS011;11731;48.592;8.858;2023-08-12T03:06:08;6.23;;;4.93;;
23123;SDS011;11731;48.592;8.858;2023-08-12T03:08:36;5.83;;;5.27;;
23123;SDS011;11731;48.592;8.858;2023-08-12T03:11:03;5.20;;;4.70;;
23123;SDS011;11731;48.592;8.858;2023-08-12T03:13:30;6.73;;;5.63;;
23123;SDS011;11731;48.592;8.858;2023-08-12T03:15:57;5.93;;;5.33;;
23123;SDS011;11731;48.592;8.858;2023-08-12T03:18:24;5.87;;;4.67;;
23123;SDS011;11731;48.592;8.858;2023-08-12T03:20:51;7.27;;;4.70;;
23123;SDS011;11731;48.592;8.858;2023-08-12T03:23:17;5.10;;;4.60;;
23123;SDS011;11731;48.592;8.858;2023-08-12T03:25:47;9.33;;;4.83;;
23123;SDS011;11731;48.592;8.858;2023-08-12T03:28:14;7.80;;;5.17;;
23123;SDS011;11731;48.592;8.858;2023-08-12T03:30:42;7.03;;;5.23;;
23123;SDS011;11731;48.592;8.858;2023-08-12T03:33:08;7.73;;;5.37;;
23123;SDS011;11731;48.592;8.858;2023-08-12T03:35:35;6.73;;;5.00;;
23123;SDS011;11731;48.592;8.858;2023-08-12T03:38:02;6.17;;;4.63;;
23123;SDS011;11731;48.592;8.858;2023-08-12T03:40:29;7.07;;;5.43;;
23123;SDS011;11731;48.592;8.858;2023-08-12T03:42:57;5.27;;;4.70;;
23123;SDS011;11731;48.592;8.858;2023-08-12T03:45:24;6.47;;;5.67;;
23123;SDS011;11731;48.592;8.858;2023-08-12T03:47:51;6.27;;;5.30;;
23123;SDS011;11731;48.592;8.858;2023-08-12T03:50:18;8.47;;;5.37;;
23123;SDS011;11731;48.592;8.858;2023-08-12T03:52:44;9.90;;;5.73;;
23123;SDS011;11731;48.592;8.858;2023-08-12T03:55:11;7.47;;;5.33;;
23123;SDS011;11731;48.592;8.858;2023-08-12T03:57:38;7.90;;;5.60;;
23123;SDS011;11731;48.592;8.858;2023-08-12T04:00:07;6.87;;;5.70;;
23123;SDS011;11731;48.592;8.858;2023-08-12T04:02:34;6.10;;;5.00;;
23123;SDS011;11731;48.592;8.858;2023-08-12T04:05:01;5.73;;;5.20;;
23123;SDS011;11731;48.592;8.858;2023-08-12T04:07:28;8.90;;;5.83;;
23123;SDS011;11731;48.592;8.858;2023-08-12T04:09:54;7.50;;;5.30;;
23123;SDS011;11731;48.592;8.858;2023-08-12T04:12:21;11.60;;;6.40;;
23123;SDS011;11731;48.592;8.858;2023-08-12T04:14:48;5.77;;;5.20;;
23123;SDS011;11731;48.592;8.858;2023-08-12T04:17:16;7.80;;;5.10;;
23123;SDS011;11731;48.592;8.858;2023-08-12T04:19:42;7.87;;;5.40;;
23123;SDS011;11731;48.592;8.858;2023-08-12T04:22:09;8.77;;;5.67;;
23123;SDS011;11731;48.592;8.858;2023-08-12T04:24:36;6.20;;;5.03;;
23123;SDS011;11731;48.592;8.858;2023-08-12T04:27:03;6.17;;;5.57;;
23123;SDS011;11731;48.592;8.858;2023-08-12T04:29:30;11.73;;;5.20;;
23123;SDS011;11731;48.592;8.858;2023-08-12T04:31:56;5.80;;;5.30;;
23123;SDS011;11731;48.592;8.858;2023-08-12T04:34:24;6.33;;;5.70;;
23123;SDS011;11731;48.592;8.858;2023-08-12T04:36:51;6.30;;;5.20;;
23123;SDS011;11731;48.592;8.858;2023-08-12T04:39:18;8.23;;;5.73;;
23123;SDS011;11731;48.592;8.858;2023-08-12T04:41:45;6.40;;;5.43;;
23123;SDS011;11731;48.592;8.858;2023-08-12T04:44:12;7.70;;;5.47;;
23123;SDS011;11731;48.592;8.858;2023-08-12T04:46:38;6.73;;;5.27;;
23123;SDS011;11731;48.592;8.858;2023-08-12T04:49:05;8.10;;;5.07;;
23123;SDS011;11731;48.592;8.858;2023-08-12T04:51:33;5.80;;;5.17;;
23123;SDS011;11731;48.592;8.858;2023-08-12T04:54:00;7.97;;;5.53;;
23123;SDS011;11731;48.592;8.858;2023-08-12T04:56:27;6.57;;;5.67;;
23123;SDS011;11731;48.592;8.858;2023-08-12T04:58:54;6.63;;;5.27;;
23123;SDS011;11731;48.592;8.858;2023-08-12T05:01:21;5.90;;;5.30;;
23123;SDS011;11731;48.592;8.858;2023-08-12T05:03:47;7.60;;;5.30;;
23123;SDS011;11731;48.592;8.858;2023-08-12T05:06:15;6.47;;;5.40;;
23123;SDS011;11731;48.592;8.858;2023-08-12T05:08:43;10.43;;;5.27;;
23123;SDS011;11731;48.592;8.858;2023-08-12T05:11:09;7.67;;;5.40;;
23123;SDS011;11731;48.592;8.858;2023-08-12T05:13:36;7.50;;;5.70;;
23123;SDS011;11731;48.592;8.858;2023-08-12T05:16:03;8.90;;;5.77;;
23123;SDS011;11731;48.592;8.858;2023-08-12T05:18:30;6.23;;;5.63;;
23123;SDS011;11731;48.592;8.858;2023-08-12T05:20:57;6.77;;;5.80;;
23123;SDS011;11731;48.592;8.858;2023-08-12T05:23:24;8.90;;;5.60;;
23123;SDS011;11731;48.592;8.858;2023-08-12T05:25:52;9.77;;;5.17;;
23123;SDS011;11731;48.592;8.858;2023-08-12T05:28:18;6.43;;;5.80;;
23123;SDS011;11731;48.592;8.858;2023-08-12T05:30:45;7.13;;;6.03;;
23123;SDS011;11731;48.592;8.858;2023-08-12T05:33:12;6.23;;;5.53;;
23123;SDS011;11731;48.592;8.858;2023-08-12T05:35:39;6.63;;;5.90;;
23123;SDS011;11731;48.592;8.858;2023-08-12T05:38:06;7.57;;;6.07;;
23123;SDS011;11731;48.592;8.858;2023-08-12T05:40:32;6.27;;;4.97;;
23123;SDS011;11731;48.592;8.858;2023-08-12T05:43:00;6.93;;;6.23;;
23123;SDS011;11731;48.592;8.858;2023-08-12T05:45:27;5.60;;;5.07;;
23123;SDS011;11731;48.592;8.858;2023-08-12T05:47:54;8.33;;;5.50;;
23123;SDS011;11731;48.592;8.858;2023-08-12T05:50:21;6.63;;;5.30;;
23123;SDS011;11731;48.592;8.858;2023-08-12T05:52:47;6.53;;;5.83;;
23123;SDS011;11731;48.592;8.858;2023-08-12T05:55:14;6.50;;;5.80;;
23123;SDS011;11731;48.592;8.858;2023-08-12T05:57:41;8.37;;;5.47;;
23123;SDS011;11731;48.592;8.858;2023-08-12T06:00:10;6.87;;;5.67;;
23123;SDS011;11731;48.592;8.858;2023-08-12T06:02:37;6.27;;;5.67;;
23123;SDS011;11731;48.592;8.858;2023-08-12T06:05:04;6.90;;;5.50;;
23123;SDS011;11731;48.592;8.858;2023-08-12T06:07:32;6.47;;;5.70;;
23123;SDS011;11731;48.592;8.858;2023-08-12T06:09:58;6.07;;;5.33;;
23123;SDS011;11731;48.592;8.858;2023-08-12T06:12:25;10.07;;;5.47;;
23123;SDS011;11731;48.592;8.858;2023-08-12T06:14:52;7.83;;;6.20;;
23123;SDS011;11731;48.592;8.858;2023-08-12T06:17:20;7.90;;;5.40;;
23123;SDS011;11731;48.592;8.858;2023-08-12T06:19:47;8.33;;;6.17;;
23123;SDS011;11731;48.592;8.858;2023-08-12T06:22:14;6.13;;;5.00;;
23123;SDS011;11731;48.592;8.858;2023-08-12T06:24:41;6.03;;;5.43;;
23123;SDS011;11731;48.592;8.858;2023-08-12T06:27:08;6.43;;;5.47;;
23123;SDS011;11731;48.592;8.858;2023-08-12T06:29:34;6.93;;;5.43;;
23123;SDS011;11731;48.592;8.858;2023-08-12T06:32:01;5.97;;;5.37;;
23123;SDS011;11731;48.592;8.858;2023-08-12T06:34:29;7.90;;;5.10;;
23123;SDS011;11731;48.592;8.858;2023-08-12T06:36:56;6.53;;;5.33;;
23123;SDS011;11731;48.592;8.858;2023-08-12T06:39:23;7.50;;;5.13;;
23123;SDS011;11731;48.592;8.858;2023-08-12T06:41:50;5.77;;;4.97;;
23123;SDS011;11731;48.592;8.858;2023-08-12T06:44:17;6.07;;;5.27;;
23123;SDS011;11731;48.592;8.858;2023-08-12T06:46:44;6.50;;;5.20;;
23123;SDS011;11731;48.592;8.858;2023-08-12T06:49:11;5.97;;;5.37;;
23123;SDS011;11731;48.592;8.858;2023-08-12T06:51:39;5.93;;;5.00;;
23123;SDS011;11731;48.592;8.858;2023-08-12T06:54:06;7.20;;;5.27;;
23123;SDS011;11731;48.592;8.858;2023-08-12T06:56:33;6.47;;;5.07;;
23123;SDS011;11731;48.592;8.858;2023-08-12T06:59:00;6.93;;;4.60;;
23123;SDS011;11731;48.592;8.858;2023-08-12T07:01:27;8.47;;;4.83;;
23123;SDS011;11731;48.592;8.858;2023-08-12T07:03:53;6.63;;;5.27;;
23123;SDS011;11731;48.592;8.858;2023-08-12T07:06:20;7.17;;;5.70;;
23123;SDS011;11731;48.592;8.858;2023-08-12T07:08:49;6.13;;;5.30;;
23123;SDS011;11731;48.592;8.858;2023-08-12T07:11:16;6.30;;;4.90;;
23123;SDS011;11731;48.592;8.858;2023-08-12T07:13:43;6.70;;;5.40;;
23123;SDS011;11731;48.592;8.858;2023-08-12T07:16:11;5.63;;;5.10;;
23123;SDS011;11731;48.592;8.858;2023-08-12T07:18:38;5.37;;;4.87;;
23123;SDS011;11731;48.592;8.858;2023-08-12T07:21:05;8.37;;;5.40;;
23123;SDS011;11731;48.592;8.858;2023-08-12T07:23:31;6.10;;;5.40;;
23123;SDS011;11731;48.592;8.858;2023-08-12T07:26:00;5.87;;;5.20;;
23123;SDS011;11731;48.592;8.858;2023-08-12T07:28:26;6.80;;;5.37;;
23123;SDS011;11731;48.592;8.858;2023-08-12T07:30:53;6.10;;;5.27;;
23123;SDS011;11731;48.592;8.858;2023-08-12T07:33:20;6.80;;;4.87;;
23123;SDS011;11731;48.592;8.858;2023-08-12T07:35:47;5.80;;;4.80;;
23123;SDS011;11731;48.592;8.858;2023-08-12T07:38:13;6.27;;;4.43;;
23123;SDS011;11731;48.592;8.858;2023-08-12T07:40:40;6.83;;;4.93;;
23123;SDS011;11731;48.592;8.858;2023-08-12T07:43:08;5.43;;;4.63;;
23123;SDS011;11731;48.592;8.858;2023-08-12T07:45:35;5.43;;;4.50;;
23123;SDS011;11731;48.592;8.858;2023-08-12T07:48:02;6.60;;;4.63;;
23123;SDS011;11731;48.592;8.858;2023-08-12T07:50:29;6.20;;;4.90;;
23123;SDS011;11731;48.592;8.858;2023-08-12T07:52:56;6.63;;;5.10;;
23123;SDS011;11731;48.592;8.858;2023-08-12T07:55:23;6.37;;;5.00;;
23123;SDS011;11731;48.592;8.858;2023-08-12T07:57:50;7.83;;;4.23;;
23123;SDS011;11731;48.592;8.858;2023-08-12T08:00:18;5.73;;;4.60;;
23123;SDS011;11731;48.592;8.858;2023-08-12T08:02:45;6.37;;;4.33;;
23123;SDS011;11731;48.592;8.858;2023-08-12T08:05:12;5.60;;;4.20;;
23123;SDS011;11731;48.592;8.858;2023-08-12T08:07:39;4.77;;;4.37;;
23123;SDS011;11731;48.592;8.858;2023-08-12T08:10:06;5.07;;;4.40;;
23123;SDS011;11731;48.592;8.858;2023-08-12T08:12:33;5.77;;;4.80;;
23123;SDS011;11731;48.592;8.858;2023-08-12T08:15:00;7.40;;;4.90;;
23123;SDS011;11731;48.592;8.858;2023-08-12T08:17:29;4.40;;;3.70;;
23123;SDS011;11731;48.592;8.858;2023-08-12T08:19:56;4.27;;;3.87;;
23123;SDS011;11731;48.592;8.858;2023-08-12T08:22:23;5.73;;;3.37;;
23123;SDS011;11731;48.592;8.858;2023-08-12T08:24:50;6.50;;;3.90;;
23123;SDS011;11731;48.592;8.858;2023-08-12T08:27:16;4.67;;;4.17;;
23123;SDS011;11731;48.592;8.858;2023-08-12T08:29:43;5.70;;;3.93;;
23123;SDS011;11731;48.592;8.858;2023-08-12T08:32:10;4.57;;;3.60;;
23123;SDS011;11731;48.592;8.858;2023-08-12T08:34:38;4.10;;;3.70;;
23123;SDS011;11731;48.592;8.858;2023-08-12T08:37:05;5.17;;;3.80;;
23123;SDS011;11731;48.592;8.858;2023-08-12T08:39:32;3.83;;;3.50;;
23123;SDS011;11731;48.592;8.858;2023-08-12T08:41:59;6.57;;;3.90;;
23123;SDS011;11731;48.592;8.858;2023-08-12T08:44:28;7.57;;;4.50;;
23123;SDS011;11731;48.592;8.858;2023-08-12T08:46:56;4.20;;;3.80;;
23123;SDS011;11731;48.592;8.858;2023-08-12T08:49:24;8.07;;;4.03;;
23123;SDS011;11731;48.592;8.858;2023-08-12T08:51:53;3.67;;;3.10;;
23123;SDS011;11731;48.592;8.858;2023-08-12T08:54:20;5.60;;;3.40;;
23123;SDS011;11731;48.592;8.858;2023-08-12T08:56:48;4.13;;;3.73;;
23123;SDS011;11731;48.592;8.858;2023-08-12T08:59:16;4.57;;;3.33;;
23123;SDS011;11731;48.592;8.858;2023-08-12T09:01:43;4.57;;;2.80;;
23123;SDS011;11731;48.592;8.858;2023-08-12T09:04:12;3.90;;;3.43;;
23123;SDS011;11731;48.592;8.858;2023-08-12T09:06:41;3.30;;;2.90;;
23123;SDS011;11731;48.592;8.858;2023-08-12T09:09:10;4.47;;;3.23;;
23123;SDS011;11731;48.592;8.858;2023-08-12T09:11:39;4.40;;;3.23;;
23123;SDS011;11731;48.592;8.858;2023-08-12T09:14:06;3.37;;;3.07;;
23123;SDS011;11731;48.592;8.858;2023-08-12T09:16:33;3.07;;;2.80;;
23123;SDS011;11731;48.592;8.858;2023-08-12T09:19:00;4.63;;;3.30;;
23123;SDS011;11731;48.592;8.858;2023-08-12T09:21:27;3.70;;;3.37;;
23123;SDS011;11731;48.592;8.858;2023-08-12T09:23:54;4.70;;;2.87;;
23123;SDS011;11731;48.592;8.858;2023-08-12T09:26:22;4.47;;;3.30;;
23123;SDS011;11731;48.592;8.858;2023-08-12T09:28:49;4.03;;;3.20;;
23123;SDS011;11731;48.592;8.858;2023-08-12T09:31:23;3.13;;;2.83;;
23123;SDS011;11731;48.592;8.858;2023-08-12T09:33:51;3.60;;;2.90;;
23123;SDS011;11731;48.592;8.858;2023-08-12T09:36:18;4.03;;;3.07;;
23123;SDS011;11731;48.592;8.858;2023-08-12T09:38:47;3.27;;;2.97;;
23123;SDS011;11731;48.592;8.858;2023-08-12T09:41:14;3.63;;;3.33;;
23123;SDS011;11731;48.592;8.858;2023-08-12T09:43:42;4.23;;;3.23;;
23123;SDS011;11731;48.592;8.858;2023-08-12T09:46:12;5.57;;;2.90;;
23123;SDS011;11731;48.592;8.858;2023-08-12T09:48:40;3.73;;;3.23;;
23123;SDS011;11731;48.592;8.858;2023-08-12T09:51:07;4.43;;;3.60;;
23123;SDS011;11731;48.592;8.858;2023-08-12T09:53:35;3.33;;;3.03;;
23123;SDS011;11731;48.592;8.858;2023-08-12T09:56:04;6.50;;;2.97;;
23123;SDS011;11731;48.592;8.858;2023-08-12T09:58:33;6.87;;;3.10;;
23123;SDS011;11731;48.592;8.858;2023-08-12T10:01:03;5.17;;;3.40;;
23123;SDS011;11731;48.592;8.858;2023-08-12T10:03:32;5.03;;;3.20;;
23123;SDS011;11731;48.592;8.858;2023-08-12T10:06:00;5.13;;;4.03;;
23123;SDS011;11731;48.592;8.858;2023-08-12T10:08:28;3.20;;;2.90;;
23123;SDS011;11731;48.592;8.858;2023-08-12T10:10:55;4.50;;;3.07;;
23123;SDS011;11731;48.592;8.858;2023-08-12T10:13:22;4.87;;;3.80;;
23123;SDS011;11731;48.592;8.858;2023-08-12T10:15:49;3.90;;;3.50;;
23123;SDS011;11731;48.592;8.858;2023-08-12T10:18:18;7.53;;;3.87;;
23123;SDS011;11731;48.592;8.858;2023-08-12T10:20:46;5.03;;;3.20;;
23123;SDS011;11731;48.592;8.858;2023-08-12T10:23:15;4.47;;;3.10;;
23123;SDS011;11731;48.592;8.858;2023-08-12T10:25:44;3.67;;;3.30;;
23123;SDS011;11731;48.592;8.858;2023-08-12T10:28:11;7.53;;;3.40;;
23123;SDS011;11731;48.592;8.858;2023-08-12T10:30:39;4.63;;;3.20;;
23123;SDS011;11731;48.592;8.858;2023-08-12T10:33:07;3.77;;;3.20;;
23123;SDS011;11731;48.592;8.858;2023-08-12T10:35:41;4.47;;;3.40;;
23123;SDS011;11731;48.592;8.858;2023-08-12T10:38:11;4.93;;;3.33;;
23123;SDS011;11731;48.592;8.858;2023-08-12T10:40:40;3.47;;;3.17;;
23123;SDS011;11731;48.592;8.858;2023-08-12T10:43:07;3.77;;;3.10;;
23123;SDS011;11731;48.592;8.858;2023-08-12T10:45:44;5.97;;;3.23;;
23123;SDS011;11731;48.592;8.858;2023-08-12T10:48:17;4.63;;;3.03;;
23123;SDS011;11731;48.592;8.858;2023-08-12T10:50:48;3.77;;;3.07;;
23123;SDS011;11731;48.592;8.858;2023-08-12T10:53:25;3.13;;;2.90;;
23123;SDS011;11731;48.592;8.858;2023-08-12T10:55:57;3.77;;;2.87;;
23123;SDS011;11731;48.592;8.858;2023-08-12T10:58:28;3.93;;;3.00;;
23123;SDS011;11731;48.592;8.858;2023-08-12T11:00:56;7.70;;;3.10;;
23123;SDS011;11731;48.592;8.858;2023-08-12T11:03:24;5.50;;;3.23;;
23123;SDS011;11731;48.592;8.858;2023-08-12T11:05:53;6.00;;;3.10;;
23123;SDS011;11731;48.592;8.858;2023-08-12T11:08:25;3.50;;;2.70;;
23123;SDS011;11731;48.592;8.858;2023-08-12T11:10:54;3.00;;;2.77;;
23123;SDS011;11731;48.592;8.858;2023-08-12T11:13:22;4.60;;;2.70;;
23123;SDS011;11731;48.592;8.858;2023-08-12T11:15:52;7.77;;;2.60;;
23123;SDS011;11731;48.592;8.858;2023-08-12T11:18:32;4.27;;;2.70;;
23123;SDS011;11731;48.592;8.858;2023-08-12T11:21:01;5.60;;;2.83;;
23123;SDS011;11731;48.592;8.858;2023-08-12T11:23:29;4.33;;;2.93;;
23123;SDS011;11731;48.592;8.858;2023-08-12T11:25:56;4.10;;;3.00;;
23123;SDS011;11731;48.592;8.858;2023-08-12T11:28:24;5.30;;;3.03;;
23123;SDS011;11731;48.592;8.858;2023-08-12T11:30:51;6.03;;;3.17;;
23123;SDS011;11731;48.592;8.858;2023-08-12T11:33:18;3.07;;;2.77;;
23123;SDS011;11731;48.592;8.858;2023-08-12T11:35:46;4.13;;;3.07;;
23123;SDS011;11731;48.592;8.858;2023-08-12T11:38:20;3.30;;;2.73;;
23123;SDS011;11731;48.592;8.858;2023-08-12T11:40:46;5.40;;;2.80;;
23123;SDS011;11731;48.592;8.858;2023-08-12T11:43:13;3.83;;;2.47;;
23123;SDS011;11731;48.592;8.858;2023-08-12T11:45:41;3.67;;;2.80;;
23123;SDS011;11731;48.592;8.858;2023-08-12T11:48:09;4.57;;;2.80;;
23123;SDS011;11731;48.592;8.858;2023-08-12T11:50:36;5.33;;;2.90;;
23123;SDS011;11731;48.592;8.858;2023-08-12T11:53:03;5.20;;;2.73;;
23123;SDS011;11731;48.592;8.858;2023-08-12T11:55:31;3.97;;;2.77;;
23123;SDS011;11731;48.592;8.858;2023-08-12T11:57:58;5.70;;;2.67;;
23123;SDS011;11731;48.592;8.858;2023-08-12T12:00:25;4.63;;;2.80;;
23123;SDS011;11731;48.592;8.858;2023-08-12T12:02:53;6.40;;;2.97;;
23123;SDS011;11731;48.592;8.858;2023-08-12T12:05:21;3.27;;;2.80;;
23123;SDS011;11731;48.592;8.858;2023-08-12T12:07:49;4.33;;;2.43;;
23123;SDS011;11731;48.592;8.858;2023-08-12T12:10:18;9.07;;;2.77;;
23123;SDS011;11731;48.592;8.858;2023-08-12T12:12:55;7.97;;;2.23;;
23123;SDS011;11731;48.592;8.858;2023-08-12T12:15:22;3.30;;;2.30;;
23123;SDS011;11731;48.592;8.858;2023-08-12T12:17:49;3.00;;;2.33;;
23123;SDS011;11731;48.592;8.858;2023-08-12T12:20:17;3.23;;;2.50;;
23123;SDS011;11731;48.592;8.858;2023-08-12T12:22:45;4.90;;;2.50;;
23123;SDS011;11731;48.592;8.858;2023-08-12T12:25:13;4.90;;;2.67;;
23123;SDS011;11731;48.592;8.858;2023-08-12T12:27:42;9.10;;;3.07;;
23123;SDS011;11731;48.592;8.858;2023-08-12T12:30:12;4.93;;;2.63;;
23123;SDS011;11731;48.592;8.858;2023-08-12T12:32:40;7.20;;;2.70;;
23123;SDS011;11731;48.592;8.858;2023-08-12T12:35:07;4.73;;;3.20;;
23123;SDS011;11731;48.592;8.858;2023-08-12T12:37:34;7.73;;;2.97;;
23123;SDS011;11731;48.592;8.858;2023-08-12T12:40:02;4.80;;;2.40;;
23123;SDS011;11731;48.592;8.858;2023-08-12T12:42:30;5.23;;;3.03;;
23123;SDS011;11731;48.592;8.858;2023-08-12T12:44:56;5.00;;;2.40;;
23123;SDS011;11731;48.592;8.858;2023-08-12T12:47:24;3.73;;;2.60;;
23123;SDS011;11731;48.592;8.858;2023-08-12T12:49:51;5.50;;;2.77;;
23123;SDS011;11731;48.592;8.858;2023-08-12T12:52:18;4.07;;;2.57;;
23123;SDS011;11731;48.592;8.858;2023-08-12T12:54:45;4.37;;;2.70;;
23123;SDS011;11731;48.592;8.858;2023-08-12T12:57:12;3.40;;;2.50;;
23123;SDS011;11731;48.592;8.858;2023-08-12T12:59:39;7.77;;;3.40;;
23123;SDS011;11731;48.592;8.858;2023-08-12T13:02:11;7.20;;;4.03;;
23123;SDS011;11731;48.592;8.858;2023-08-12T13:04:39;7.37;;;3.13;;
23123;SDS011;11731;48.592;8.858;2023-08-12T13:07:07;5.33;;;3.17;;
23123;SDS011;11731;48.592;8.858;2023-08-12T13:09:34;4.77;;;2.80;;
23123;SDS011;11731;48.592;8.858;2023-08-12T13:12:01;4.50;;;3.33;;
23123;SDS011;11731;48.592;8.858;2023-08-12T13:14:28;7.77;;;3.10;;
23123;SDS011;11731;48.592;8.858;2023-08-12T13:16:55;5.90;;;2.73;;
23123;SDS011;11731;48.592;8.858;2023-08-12T13:19:22;5.07;;;2.90;;
23123;SDS011;11731;48.592;8.858;2023-08-12T13:21:50;5.50;;;2.60;;
23123;SDS011;11731;48.592;8.858;2023-08-12T13:24:17;5.07;;;2.73;;
23123;SDS011;11731;48.592;8.858;2023-08-12T13:26:45;2.83;;;2.50;;
23123;SDS011;11731;48.592;8.858;2023-08-12T13:29:12;4.37;;;2.63;;
23123;SDS011;11731;48.592;8.858;2023-08-12T13:31:39;4.73;;;2.43;;
23123;SDS011;11731;48.592;8.858;2023-08-12T13:34:06;4.57;;;2.60;;
23123;SDS011;11731;48.592;8.858;2023-08-12T13:36:32;3.50;;;2.30;;
23123;SDS011;11731;48.592;8.858;2023-08-12T13:39:01;3.37;;;1.93;;
23123;SDS011;11731;48.592;8.858;2023-08-12T13:41:27;3.43;;;2.17;;
23123;SDS011;11731;48.592;8.858;2023-08-12T13:43:54;4.07;;;1.90;;
23123;SDS011;11731;48.592;8.858;2023-08-12T13:46:21;2.60;;;2.13;;
23123;SDS011;11731;48.592;8.858;2023-08-12T13:48:48;2.50;;;1.83;;
23123;SDS011;11731;48.592;8.858;2023-08-12T13:51:15;3.20;;;2.30;;
23123;SDS011;11731;48.592;8.858;2023-08-12T13:53:41;3.17;;;2.47;;
23123;SDS011;11731;48.592;8.858;2023-08-12T13:56:10;2.20;;;2.00;;
23123;SDS011;11731;48.592;8.858;2023-08-12T13:58:37;2.30;;;2.10;;
23123;SDS011;11731;48.592;8.858;2023-08-12T14:01:04;3.10;;;2.23;;
23123;SDS011;11731;48.592;8.858;2023-08-12T14:03:31;2.57;;;2.30;;
23123;SDS011;11731;48.592;8.858;2023-08-12T14:05:58;3.80;;;2.50;;
23123;SDS011;11731;48.592;8.858;2023-08-12T14:08:25;3.40;;;2.30;;
23123;SDS011;11731;48.592;8.858;2023-08-12T14:10:52;2.67;;;2.43;;
23123;SDS011;11731;48.592;8.858;2023-08-12T14:13:20;2.80;;;2.23;;
23123;SDS011;11731;48.592;8.858;2023-08-12T14:15:47;4.53;;;2.30;;
23123;SDS011;11731;48.592;8.858;2023-08-12T14:18:14;5.30;;;2.30;;
23123;SDS011;11731;48.592;8.858;2023-08-12T14:20:41;2.53;;;2.03;;
23123;SDS011;11731;48.592;8.858;2023-08-12T14:23:07;3.17;;;2.30;;
23123;SDS011;11731;48.592;8.858;2023-08-12T14:25:34;2.70;;;2.30;;
23123;SDS011;11731;48.592;8.858;2023-08-12T14:28:01;3.30;;;2.40;;
23123;SDS011;11731;48.592;8.858;2023-08-12T14:30:29;3.53;;;2.30;;
23123;SDS011;11731;48.592;8.858;2023-08-12T14:32:56;2.40;;;2.00;;
23123;SDS011;11731;48.592;8.858;2023-08-12T14:35:24;2.83;;;2.07;;
23123;SDS011;11731;48.592;8.858;2023-08-12T14:37:50;3.20;;;1.87;;
23123;SDS011;11731;48.592;8.858;2023-08-12T14:40:17;4.33;;;2.10;;
23123;SDS011;11731;48.592;8.858;2023-08-12T14:42:44;2.20;;;2.00;;
23123;SDS011;11731;48.592;8.858;2023-08-12T14:45:11;3.00;;;2.13;;
23123;SDS011;11731;48.592;8.858;2023-08-12T14:47:39;2.33;;;2.00;;
23123;SDS011;11731;48.592;8.858;2023-08-12T14:50:07;4.80;;;1.97;;